Ursine, Nevada
Current Conditions -  °F | °C
As of 1:53 AM on Sunday 26 Oct 2014 (Local Time) from KELY Reporting Station
Clear Clear  
Wind Chill: 50°   Ceiling: Unl
Heat Index: 50°   Visibility: 10mi
Dew Point: 31°   Wind: 12mph
Humidity: 48%   Direction: 170°S
Pressure: 30.06"   Gusts: NA
Location:  38.2635°N, 114.484°W
Report Text: KELY 260853Z AUTO 17010KT 10SM CLR 10/M01 A3006 RMK AO2 SLP094 T01001006 52001
Loading
Personal Weather Stations






























Interactive Weather Map
Tropical Storm Tracking
New forecast layout! Learn more

10-Day Weather Forecast

Advertisements
Track Severe Weather on mobile